Time;durP1;ratioP1;P1;durP2;ratioP2;P2;SDS_P1;SDS_P2;PMS_P1;PMS_P2;Temp;Humidity;BMP_temperature;BMP_pressure;BME280_temperature;BME280_humidity;BME280_pressure;Samples;Min_cycle;Max_cycle;Signal;HPM_P1;HPM_P2
2022/04/19 00:01:21;;;;;;;;;;;25.30;36.40;;;;;;5074807;28;1016;-42
2022/04/19 00:03:47;;;;;;;;;;;25.30;36.40;;;;;;5074227;28;1011;-42
2022/04/19 00:06:14;;;;;;;;;;;25.30;36.50;;;;;;5074582;28;990;-42
2022/04/19 00:08:41;;;;;;;;;;;25.30;36.50;;;;;;5075638;28;913;-42
2022/04/19 00:11:08;;;;;;;;;;;25.30;36.60;;;;;;5074740;28;1901;-41
2022/04/19 00:13:35;;;;;;;;;;;25.30;36.60;;;;;;5076516;28;1046;-42
2022/04/19 00:16:02;;;;;;;;;;;25.30;36.60;;;;;;5075201;28;973;-41
2022/04/19 00:18:30;;;;;;;;;;;25.30;36.40;;;;;;5075659;28;984;-42
2022/04/19 00:20:56;;;;;;;;;;;25.30;36.60;;;;;;5075351;28;977;-41
2022/04/19 00:23:23;;;;;;;;;;;25.30;36.50;;;;;;5074060;28;984;-41
2022/04/19 00:25:52;;;;;;;;;;;25.30;36.60;;;;;;5074919;28;933;-41
2022/04/19 00:28:19;;;;;;;;;;;25.30;36.60;;;;;;5074846;28;997;-41
2022/04/19 00:30:47;;;;;;;;;;;25.20;36.60;;;;;;5075156;28;1976;-42
2022/04/19 00:33:14;;;;;;;;;;;25.20;36.60;;;;;;5076245;28;1044;-42
2022/04/19 00:35:42;;;;;;;;;;;25.20;36.70;;;;;;5076863;28;968;-41
2022/04/19 00:38:09;;;;;;;;;;;25.20;36.70;;;;;;5076125;28;1012;-42
2022/04/19 00:40:36;;;;;;;;;;;25.20;36.60;;;;;;5076113;28;1315;-42
2022/04/19 00:43:03;;;;;;;;;;;25.20;36.60;;;;;;5074839;28;948;-42
2022/04/19 00:45:34;;;;;;;;;;;25.20;36.60;;;;;;5075840;28;1748;-42
2022/04/19 00:48:01;;;;;;;;;;;25.20;36.60;;;;;;5074526;28;1009;-41
2022/04/19 00:50:28;;;;;;;;;;;25.20;36.70;;;;;;5074517;28;1981;-42
2022/04/19 00:52:57;;;;;;;;;;;25.20;36.70;;;;;;5075575;28;968;-42
2022/04/19 00:55:23;;;;;;;;;;;25.20;36.70;;;;;;5075162;28;1270;-42
2022/04/19 00:57:51;;;;;;;;;;;25.20;36.60;;;;;;5074253;28;897;-41
2022/04/19 01:00:18;;;;;;;;;;;25.20;36.70;;;;;;5075376;28;1049;-41
2022/04/19 01:02:44;;;;;;;;;;;25.20;36.70;;;;;;5074886;28;917;-42
2022/04/19 01:05:12;;;;;;;;;;;25.20;37.80;;;;;;5075224;28;1020;-41
2022/04/19 01:07:39;;;;;;;;;;;25.20;36.70;;;;;;5075462;28;997;-42
2022/04/19 01:10:08;;;;;;;;;;;25.20;36.70;;;;;;5075012;28;1906;-42
2022/04/19 01:15:19;;;;;;;;;;;25.20;36.70;;;;;;5074905;28;1030;-42
2022/04/19 01:17:45;;;;;;;;;;;25.20;36.80;;;;;;5074725;28;1009;-42
2022/04/19 01:20:13;;;;;;;;;;;25.20;36.80;;;;;;5075542;28;1029;-42
2022/04/19 01:22:41;;;;;;;;;;;25.10;36.80;;;;;;5075698;28;921;-42
2022/04/19 01:25:09;;;;;;;;;;;25.10;36.80;;;;;;5075471;28;973;-41
2022/04/19 01:27:36;;;;;;;;;;;25.10;36.90;;;;;;5075448;28;929;-42
2022/04/19 01:30:04;;;;;;;;;;;25.10;36.90;;;;;;5076368;28;1983;-42
2022/04/19 01:32:30;;;;;;;;;;;25.10;36.90;;;;;;5075130;28;1024;-42
2022/04/19 01:35:07;;;;;;;;;;;25.10;36.90;;;;;;5075254;28;953;-42
2022/04/19 01:37:34;;;;;;;;;;;25.10;36.90;;;;;;5075875;28;1008;-42
2022/04/19 01:40:17;;;;;;;;;;;25.10;37.00;;;;;;5075849;28;1233;-42
2022/04/19 01:42:45;;;;;;;;;;;25.10;36.90;;;;;;5075765;28;932;-42
2022/04/19 01:45:12;;;;;;;;;;;25.10;36.90;;;;;;5073802;28;1012;-42
2022/04/19 01:47:39;;;;;;;;;;;25.10;36.90;;;;;;5074106;28;1063;-42
2022/04/19 01:50:08;;;;;;;;;;;25.10;36.90;;;;;;5075143;28;1973;-42
2022/04/19 01:52:36;;;;;;;;;;;25.10;37.10;;;;;;5075114;28;992;-41
2022/04/19 01:55:05;;;;;;;;;;;25.10;37.10;;;;;;5077860;28;1010;-42
2022/04/19 01:57:32;;;;;;;;;;;25.00;37.00;;;;;;5078765;28;1874;-41
2022/04/19 01:59:58;;;;;;;;;;;25.10;36.90;;;;;;5079131;28;1311;-41
2022/04/19 02:02:25;;;;;;;;;;;25.10;36.90;;;;;;5079342;28;1009;-42
2022/04/19 02:04:52;;;;;;;;;;;25.00;37.00;;;;;;5078866;28;991;-42
2022/04/19 02:07:19;;;;;;;;;;;25.00;37.00;;;;;;5078131;28;1012;-42
2022/04/19 02:09:47;;;;;;;;;;;25.00;37.00;;;;;;5078977;28;976;-41
2022/04/19 02:12:15;;;;;;;;;;;25.00;37.00;;;;;;5077895;28;2057;-43
2022/04/19 02:14:42;;;;;;;;;;;25.10;37.10;;;;;;5079431;28;1017;-42
2022/04/19 02:17:10;;;;;;;;;;;25.00;37.00;;;;;;5080226;28;1017;-42
2022/04/19 02:19:37;;;;;;;;;;;25.00;37.10;;;;;;5078179;28;1039;-41
2022/04/19 02:22:06;;;;;;;;;;;25.00;37.00;;;;;;5077286;28;985;-42
2022/04/19 02:24:33;;;;;;;;;;;25.00;37.10;;;;;;5078159;28;941;-42
2022/04/19 02:27:00;;;;;;;;;;;25.00;37.00;;;;;;5077831;28;996;-45
2022/04/19 02:29:29;;;;;;;;;;;25.00;37.10;;;;;;5077677;28;957;-41
2022/04/19 02:31:56;;;;;;;;;;;25.00;37.10;;;;;;5072062;28;1910;-42
2022/04/19 02:34:22;;;;;;;;;;;25.00;37.10;;;;;;5068859;28;988;-41
2022/04/19 02:36:49;;;;;;;;;;;24.90;37.20;;;;;;5073624;28;1136;-42
2022/04/19 02:39:16;;;;;;;;;;;25.00;37.10;;;;;;5077953;28;1108;-42
2022/04/19 02:41:43;;;;;;;;;;;25.00;37.30;;;;;;5078412;28;1085;-42
2022/04/19 02:44:09;;;;;;;;;;;24.90;37.30;;;;;;5078181;28;897;-41
2022/04/19 02:46:37;;;;;;;;;;;24.90;37.30;;;;;;5077234;28;974;-41
2022/04/19 02:49:05;;;;;;;;;;;24.90;37.20;;;;;;5076512;28;1046;-41
2022/04/19 02:51:32;;;;;;;;;;;24.90;37.20;;;;;;5077859;28;1910;-41
2022/04/19 02:53:59;;;;;;;;;;;24.90;37.30;;;;;;5077754;28;1008;-42
2022/04/19 02:56:26;;;;;;;;;;;24.90;37.20;;;;;;5076877;28;972;-42
2022/04/19 02:58:52;;;;;;;;;;;24.90;37.30;;;;;;5077477;28;920;-42
2022/04/19 03:01:20;;;;;;;;;;;24.90;37.20;;;;;;5077571;28;1014;-41
2022/04/19 03:03:48;;;;;;;;;;;24.90;37.40;;;;;;5077736;28;881;-42
2022/04/19 03:06:14;;;;;;;;;;;24.90;37.40;;;;;;5075774;28;1018;-42
2022/04/19 03:08:41;;;;;;;;;;;24.80;37.30;;;;;;5076949;28;1176;-41
2022/04/19 03:11:08;;;;;;;;;;;24.80;37.40;;;;;;5075672;28;1925;-41
2022/04/19 03:13:36;;;;;;;;;;;24.80;37.40;;;;;;5076052;28;952;-42
2022/04/19 03:16:03;;;;;;;;;;;24.80;37.30;;;;;;5076404;28;1895;-42
2022/04/19 03:18:31;;;;;;;;;;;24.80;37.40;;;;;;5077000;28;945;-42
2022/04/19 03:20:59;;;;;;;;;;;24.90;37.30;;;;;;5076566;28;1019;-42
2022/04/19 03:28:54;;;;;;;;;;;24.80;37.60;;;;;;5075320;28;679;-42
2022/04/19 03:31:22;;;;;;;;;;;24.70;37.60;;;;;;5074942;28;1890;-41
2022/04/19 03:33:51;;;;;;;;;;;24.70;37.60;;;;;;5075496;28;924;-42
2022/04/19 03:36:19;;;;;;;;;;;24.80;37.60;;;;;;5074805;28;1065;-42
2022/04/19 03:38:46;;;;;;;;;;;24.80;37.50;;;;;;5076269;28;1264;-41
2022/04/19 03:41:13;;;;;;;;;;;24.80;37.50;;;;;;5075201;28;957;-42
2022/04/19 03:43:41;;;;;;;;;;;24.80;37.50;;;;;;5075322;28;906;-42
2022/04/19 03:46:08;;;;;;;;;;;24.80;37.50;;;;;;5075443;28;1043;-42
2022/04/19 03:48:34;;;;;;;;;;;24.80;37.60;;;;;;5074514;28;895;-41
2022/04/19 03:51:02;;;;;;;;;;;24.80;37.50;;;;;;5075389;28;1905;-42
2022/04/19 03:53:30;;;;;;;;;;;24.80;37.60;;;;;;5073411;28;984;-42
2022/04/19 03:55:58;;;;;;;;;;;24.80;37.60;;;;;;5074528;28;889;-42
2022/04/19 03:58:25;;;;;;;;;;;24.80;37.60;;;;;;5073977;28;944;-41
2022/04/19 04:00:52;;;;;;;;;;;24.80;37.60;;;;;;5073494;28;1164;-41
2022/04/19 04:03:19;;;;;;;;;;;24.80;37.60;;;;;;5072823;28;973;-42
2022/04/19 04:05:45;;;;;;;;;;;24.80;37.60;;;;;;5071699;28;1026;-42
2022/04/19 04:08:12;;;;;;;;;;;24.80;37.60;;;;;;5072535;28;892;-41
2022/04/19 04:10:40;;;;;;;;;;;24.70;37.60;;;;;;5073337;28;1893;-42
2022/04/19 04:13:07;;;;;;;;;;;24.70;38.00;;;;;;5073356;28;884;-42
2022/04/19 04:15:34;;;;;;;;;;;24.80;37.60;;;;;;5073803;28;977;-41
2022/04/19 04:18:01;;;;;;;;;;;24.70;37.60;;;;;;5073306;28;1840;-42
2022/04/19 04:20:27;;;;;;;;;;;24.70;37.70;;;;;;5074491;28;921;-42
2022/04/19 04:22:54;;;;;;;;;;;24.70;37.70;;;;;;5074175;28;1082;-41
2022/04/19 04:25:21;;;;;;;;;;;24.70;37.70;;;;;;5074097;28;973;-41
2022/04/19 04:27:49;;;;;;;;;;;24.70;37.70;;;;;;5072676;28;920;-42
2022/04/19 04:30:17;;;;;;;;;;;24.70;37.80;;;;;;5074376;28;971;-41
2022/04/19 04:32:44;;;;;;;;;;;24.70;37.80;;;;;;5073278;28;1968;-41
2022/04/19 04:35:11;;;;;;;;;;;24.70;37.80;;;;;;5073241;28;1012;-41
2022/04/19 04:37:37;;;;;;;;;;;24.80;37.80;;;;;;5073821;28;980;-42
2022/04/19 04:40:05;;;;;;;;;;;24.70;37.90;;;;;;5074631;28;1162;-41
2022/04/19 04:42:31;;;;;;;;;;;24.70;38.00;;;;;;5074627;28;957;-43
2022/04/19 04:44:59;;;;;;;;;;;24.70;38.30;;;;;;5073670;28;986;-44
2022/04/19 04:50:10;;;;;;;;;;;24.70;38.50;;;;;;5073010;28;994;-43
2022/04/19 04:52:37;;;;;;;;;;;24.70;38.70;;;;;;5071786;28;1906;-46
2022/04/19 04:55:05;;;;;;;;;;;24.60;38.80;;;;;;5072412;28;1464;-43
2022/04/19 04:57:31;;;;;;;;;;;24.70;38.50;;;;;;5072864;28;1119;-44
2022/04/19 05:00:00;;;;;;;;;;;24.70;38.60;;;;;;5074032;28;973;-44
2022/04/19 05:02:26;;;;;;;;;;;24.70;38.60;;;;;;5071006;28;878;-44
2022/04/19 05:04:53;;;;;;;;;;;24.70;38.70;;;;;;5071403;28;1016;-45
2022/04/19 05:07:20;;;;;;;;;;;24.80;38.90;;;;;;5071366;28;868;-45
2022/04/19 05:09:47;;;;;;;;;;;24.70;38.90;;;;;;5071736;28;1006;-45
2022/04/19 05:12:13;;;;;;;;;;;24.70;38.90;;;;;;5071771;28;1971;-45
2022/04/19 05:14:40;;;;;;;;;;;24.70;38.90;;;;;;5071678;28;1027;-44
2022/04/19 05:17:08;;;;;;;;;;;24.80;39.00;;;;;;5072165;28;742;-44
2022/04/19 05:19:35;;;;;;;;;;;24.80;39.10;;;;;;5071343;28;1096;-44
2022/04/19 05:22:01;;;;;;;;;;;24.70;39.20;;;;;;5069810;28;984;-44
2022/04/19 05:24:28;;;;;;;;;;;24.70;39.40;;;;;;5070904;28;1011;-45
2022/04/19 05:26:55;;;;;;;;;;;24.70;39.40;;;;;;5068508;28;953;-44
2022/04/19 05:29:22;;;;;;;;;;;24.70;39.30;;;;;;5070574;28;877;-44
2022/04/19 05:31:48;;;;;;;;;;;24.70;39.50;;;;;;5072628;28;1997;-42
2022/04/19 05:34:17;;;;;;;;;;;24.80;39.20;;;;;;5074072;28;909;-42
2022/04/19 05:36:43;;;;;;;;;;;24.80;39.20;;;;;;5073675;28;1136;-41
2022/04/19 05:39:10;;;;;;;;;;;24.80;39.20;;;;;;5074404;28;1391;-41
2022/04/19 05:41:39;;;;;;;;;;;24.80;39.20;;;;;;5074158;28;885;-41
2022/04/19 05:44:06;;;;;;;;;;;24.80;39.30;;;;;;5073709;28;1019;-41
2022/04/19 05:46:33;;;;;;;;;;;24.70;39.40;;;;;;5074092;28;1091;-41
2022/04/19 05:49:00;;;;;;;;;;;24.70;39.60;;;;;;5075759;28;1009;-40
2022/04/19 05:51:28;;;;;;;;;;;24.70;39.40;;;;;;5076053;28;1972;-40
2022/04/19 05:53:55;;;;;;;;;;;24.70;39.50;;;;;;5074699;28;1004;-41
2022/04/19 05:56:22;;;;;;;;;;;24.70;39.60;;;;;;5075151;28;986;-40
2022/04/19 05:58:48;;;;;;;;;;;24.70;39.60;;;;;;5074772;28;984;-40
2022/04/19 06:01:15;;;;;;;;;;;24.70;39.60;;;;;;5073914;28;1002;-40
2022/04/19 06:06:26;;;;;;;;;;;24.70;39.50;;;;;;5073354;28;950;-41
2022/04/19 06:08:54;;;;;;;;;;;24.70;39.50;;;;;;5072082;28;1012;-40
2022/04/19 06:11:21;;;;;;;;;;;24.70;39.60;;;;;;5071532;28;1981;-40
2022/04/19 06:13:48;;;;;;;;;;;24.70;39.50;;;;;;5074143;28;912;-40
2022/04/19 06:16:15;;;;;;;;;;;24.70;39.60;;;;;;5074060;28;1028;-40
2022/04/19 06:18:41;;;;;;;;;;;24.70;39.60;;;;;;5074810;28;996;-41
2022/04/19 06:21:08;;;;;;;;;;;24.70;39.50;;;;;;5073586;28;925;-42
2022/04/19 06:23:36;;;;;;;;;;;24.70;39.60;;;;;;5073421;28;936;-40
2022/04/19 06:26:04;;;;;;;;;;;24.70;39.60;;;;;;5072277;28;1067;-40
2022/04/19 06:28:31;;;;;;;;;;;24.70;39.40;;;;;;5072682;28;1013;-42
2022/04/19 06:30:58;;;;;;;;;;;24.70;39.50;;;;;;5071102;28;1329;-40
2022/04/19 06:33:24;;;;;;;;;;;24.70;39.60;;;;;;5070810;28;1918;-40
2022/04/19 06:35:51;;;;;;;;;;;24.70;39.50;;;;;;5071662;28;967;-40
2022/04/19 06:38:18;;;;;;;;;;;24.70;39.50;;;;;;5071960;28;936;-40
2022/04/19 06:40:45;;;;;;;;;;;24.70;39.50;;;;;;5069861;28;1060;-40
2022/04/19 06:43:13;;;;;;;;;;;24.70;39.60;;;;;;5071486;28;1000;-40
2022/04/19 06:45:40;;;;;;;;;;;24.70;39.40;;;;;;5072431;28;972;-40
2022/04/19 06:48:07;;;;;;;;;;;24.70;39.60;;;;;;5071895;28;967;-40
2022/04/19 06:50:34;;;;;;;;;;;24.70;39.70;;;;;;5070297;28;991;-40
2022/04/19 06:53:00;;;;;;;;;;;24.70;39.80;;;;;;5072746;28;1898;-39
2022/04/19 06:55:27;;;;;;;;;;;24.70;39.70;;;;;;5070867;28;1350;-40
2022/04/19 06:57:54;;;;;;;;;;;24.70;39.60;;;;;;5066474;28;1298;-40
2022/04/19 07:00:22;;;;;;;;;;;24.70;39.50;;;;;;5071240;28;916;-41
2022/04/19 07:02:49;;;;;;;;;;;24.70;39.60;;;;;;5070541;28;1129;-40
2022/04/19 07:05:17;;;;;;;;;;;24.70;39.70;;;;;;5068695;28;1016;-40
2022/04/19 07:07:44;;;;;;;;;;;24.70;39.70;;;;;;5070552;28;885;-40
2022/04/19 07:10:11;;;;;;;;;;;24.70;39.80;;;;;;5068066;28;971;-40
2022/04/19 07:12:39;;;;;;;;;;;24.70;39.70;;;;;;5070186;28;1875;-40
2022/04/19 07:15:06;;;;;;;;;;;24.70;39.80;;;;;;5069460;28;999;-40
2022/04/19 07:17:37;;;;;;;;;;;24.70;39.90;;;;;;5070035;28;926;-40
2022/04/19 07:28:28;;;;;;;;;;;24.70;39.80;;;;;;5026008;28;1056;-40
2022/04/19 07:30:55;;;;;;;;;;;24.70;39.90;;;;;;5058731;28;983;-40
2022/04/19 07:33:23;;;;;;;;;;;24.70;39.90;;;;;;5067665;28;1971;-39
2022/04/19 07:35:51;;;;;;;;;;;24.70;39.90;;;;;;5068407;28;1111;-41
2022/04/19 07:38:18;;;;;;;;;;;24.70;39.60;;;;;;5068055;28;964;-41
2022/04/19 07:40:45;;;;;;;;;;;24.70;39.90;;;;;;5066691;28;1007;-43
2022/04/19 07:43:14;;;;;;;;;;;24.70;39.90;;;;;;5067148;28;889;-42
2022/04/19 07:45:42;;;;;;;;;;;24.70;40.00;;;;;;5068138;28;1891;-41
2022/04/19 07:48:09;;;;;;;;;;;24.70;39.90;;;;;;5066865;28;853;-41
2022/04/19 07:50:37;;;;;;;;;;;24.70;41.00;;;;;;5065870;28;984;-41
2022/04/19 07:53:04;;;;;;;;;;;24.70;40.00;;;;;;5068064;28;1975;-42
2022/04/19 07:55:31;;;;;;;;;;;24.70;39.80;;;;;;5069189;28;1002;-40
2022/04/19 07:57:58;;;;;;;;;;;24.80;39.90;;;;;;5067308;28;1122;-41
2022/04/19 08:00:27;;;;;;;;;;;24.70;39.70;;;;;;5069350;28;982;-42
2022/04/19 08:02:54;;;;;;;;;;;24.70;39.90;;;;;;5067113;28;877;-42
2022/04/19 08:05:21;;;;;;;;;;;24.80;39.90;;;;;;5067709;28;945;-41
2022/04/19 08:07:49;;;;;;;;;;;24.80;39.90;;;;;;5069785;28;866;-41
2022/04/19 08:10:17;;;;;;;;;;;24.80;39.90;;;;;;5067806;28;988;-42
2022/04/19 08:12:44;;;;;;;;;;;24.80;39.90;;;;;;5066932;28;2023;-41
2022/04/19 08:15:11;;;;;;;;;;;24.80;39.80;;;;;;5068211;28;1246;-41
2022/04/19 08:17:38;;;;;;;;;;;24.70;39.80;;;;;;5069160;28;1003;-41
2022/04/19 08:20:06;;;;;;;;;;;24.80;39.80;;;;;;5068470;28;984;-42
2022/04/19 08:22:32;;;;;;;;;;;24.80;39.70;;;;;;5068526;28;818;-41
2022/04/19 08:25:00;;;;;;;;;;;24.80;39.70;;;;;;5068255;28;941;-41
2022/04/19 08:27:27;;;;;;;;;;;24.80;39.70;;;;;;5068506;28;972;-41
2022/04/19 08:29:54;;;;;;;;;;;24.80;39.70;;;;;;5067628;28;1842;-41
2022/04/19 08:32:21;;;;;;;;;;;24.80;39.50;;;;;;5068232;28;1898;-41
2022/04/19 08:34:48;;;;;;;;;;;24.80;39.90;;;;;;5068898;28;888;-41
2022/04/19 08:37:14;;;;;;;;;;;24.80;39.80;;;;;;5069436;28;949;-41
2022/04/19 08:39:41;;;;;;;;;;;24.80;39.50;;;;;;5075183;28;1169;-46
2022/04/19 08:42:09;;;;;;;;;;;24.80;39.60;;;;;;5088748;28;970;-46
2022/04/19 08:44:36;;;;;;;;;;;24.80;39.70;;;;;;5088908;28;975;-46
2022/04/19 08:47:05;;;;;;;;;;;24.80;39.60;;;;;;5088516;28;944;-46
2022/04/19 08:49:32;;;;;;;;;;;24.80;39.50;;;;;;5087672;28;896;-46
2022/04/19 08:51:59;;;;;;;;;;;24.80;39.50;;;;;;5087302;28;1879;-47
2022/04/19 08:59:56;;;;;;;;;;;24.80;39.50;;;;;;5088922;28;1006;-46
2022/04/19 09:02:23;;;;;;;;;;;24.80;39.40;;;;;;5088315;28;2037;-46
2022/04/19 09:04:51;;;;;;;;;;;24.80;39.60;;;;;;5087832;28;2355;-46
2022/04/19 09:07:18;;;;;;;;;;;24.90;39.40;;;;;;5088935;28;1474;-46
2022/04/19 09:09:57;;;;;;;;;;;24.80;39.40;;;;;;5090304;28;1023;-49
2022/04/19 09:12:25;;;;;;;;;;;24.90;39.40;;;;;;5089161;28;1874;-47
2022/04/19 09:14:55;;;;;;;;;;;24.90;39.30;;;;;;5087932;28;1045;-46
2022/04/19 09:17:30;;;;;;;;;;;24.90;39.40;;;;;;5088501;28;940;-46
2022/04/19 09:20:08;;;;;;;;;;;24.90;39.40;;;;;;5087472;28;979;-47
2022/04/19 09:22:36;;;;;;;;;;;24.90;39.30;;;;;;5089296;28;929;-46
2022/04/19 09:25:14;;;;;;;;;;;24.90;39.40;;;;;;5087262;28;980;-45
2022/04/19 09:27:42;;;;;;;;;;;24.90;39.10;;;;;;5086297;28;1011;-45
2022/04/19 09:30:16;;;;;;;;;;;25.00;39.20;;;;;;5088331;28;1919;-44
2022/04/19 09:32:59;;;;;;;;;;;24.90;39.20;;;;;;5088211;28;1886;-48
2022/04/19 09:35:28;;;;;;;;;;;25.00;39.10;;;;;;5087797;28;2093;-44
2022/04/19 09:37:55;;;;;;;;;;;25.00;39.10;;;;;;5087952;28;952;-46
2022/04/19 09:40:27;;;;;;;;;;;24.90;39.20;;;;;;5087622;28;1880;-45
2022/04/19 09:42:56;;;;;;;;;;;24.90;39.10;;;;;;5087440;28;999;-46
2022/04/19 09:45:23;;;;;;;;;;;24.90;39.10;;;;;;5087139;28;1045;-45
2022/04/19 09:47:53;;;;;;;;;;;24.90;39.00;;;;;;5087507;28;1990;-45
2022/04/19 09:50:21;;;;;;;;;;;25.00;39.30;;;;;;5086504;28;869;-48
2022/04/19 09:52:51;;;;;;;;;;;25.00;39.10;;;;;;5087454;28;1914;-45
2022/04/19 09:55:18;;;;;;;;;;;25.00;39.10;;;;;;5087448;28;956;-44
2022/04/19 09:57:47;;;;;;;;;;;25.00;39.10;;;;;;5074471;28;1904;-41
2022/04/19 10:00:17;;;;;;;;;;;25.00;39.10;;;;;;5066976;28;892;-41
2022/04/19 10:08:19;;;;;;;;;;;25.00;39.10;;;;;;5066939;28;600;-42
2022/04/19 10:10:46;;;;;;;;;;;25.00;39.10;;;;;;5065887;28;1113;-42
2022/04/19 10:13:13;;;;;;;;;;;25.00;39.10;;;;;;5067503;28;1962;-42
2022/04/19 10:15:42;;;;;;;;;;;25.00;39.10;;;;;;5067792;28;1032;-41
2022/04/19 10:18:10;;;;;;;;;;;25.00;39.10;;;;;;5069338;28;991;-41
2022/04/19 10:20:38;;;;;;;;;;;25.00;39.10;;;;;;5068370;28;999;-41
2022/04/19 10:23:08;;;;;;;;;;;25.00;39.10;;;;;;5068975;28;1075;-41
2022/04/19 10:25:40;;;;;;;;;;;25.00;39.10;;;;;;5069326;28;1157;-41
2022/04/19 10:28:07;;;;;;;;;;;25.00;39.10;;;;;;5070597;28;952;-41
2022/04/19 10:30:35;;;;;;;;;;;25.00;39.20;;;;;;5068741;28;1000;-41
2022/04/19 10:33:23;;;;;;;;;;;25.00;39.10;;;;;;5066425;28;1977;-41
2022/04/19 10:36:09;;;;;;;;;;;25.00;39.10;;;;;;5064247;28;1420;-41
2022/04/19 10:38:36;;;;;;;;;;;25.00;39.10;;;;;;5068402;28;936;-42
2022/04/19 10:41:03;;;;;;;;;;;25.00;39.00;;;;;;5071065;28;1157;-41
2022/04/19 10:43:30;;;;;;;;;;;25.00;39.20;;;;;;5068308;28;984;-43
2022/04/19 10:46:15;;;;;;;;;;;25.00;39.10;;;;;;5068098;28;1868;-41
2022/04/19 10:48:57;;;;;;;;;;;25.00;39.10;;;;;;5088728;28;980;-43
2022/04/19 10:51:31;;;;;;;;;;;25.00;39.20;;;;;;5089123;28;1190;-43
2022/04/19 10:53:58;;;;;;;;;;;25.00;39.30;;;;;;5089568;28;1878;-44
2022/04/19 10:56:25;;;;;;;;;;;25.00;39.20;;;;;;5088226;28;976;-43
2022/04/19 10:58:52;;;;;;;;;;;25.00;39.20;;;;;;5088630;28;957;-45
2022/04/19 11:01:29;;;;;;;;;;;25.00;39.20;;;;;;5088678;28;1015;-44
2022/04/19 11:03:56;;;;;;;;;;;25.00;39.20;;;;;;5088151;28;972;-46
2022/04/19 11:06:32;;;;;;;;;;;25.00;39.00;;;;;;5088687;28;1106;-44
2022/04/19 11:09:26;;;;;;;;;;;25.00;39.20;;;;;;5089151;28;924;-45
2022/04/19 11:11:53;;;;;;;;;;;25.00;39.20;;;;;;5089348;28;1113;-45
2022/04/19 11:14:47;;;;;;;;;;;25.00;39.20;;;;;;5088895;28;1878;-45
2022/04/19 11:17:27;;;;;;;;;;;25.00;39.10;;;;;;5088091;28;940;-45
2022/04/19 11:19:55;;;;;;;;;;;25.00;39.10;;;;;;5088517;28;961;-43
2022/04/19 11:22:29;;;;;;;;;;;25.00;39.20;;;;;;5088476;28;961;-43
2022/04/19 11:24:59;;;;;;;;;;;25.00;39.30;;;;;;5088246;28;1932;-44
2022/04/19 11:27:46;;;;;;;;;;;25.00;40.40;;;;;;5086623;28;933;-45
2022/04/19 11:30:13;;;;;;;;;;;25.00;39.10;;;;;;5088512;28;1130;-45
2022/04/19 11:32:41;;;;;;;;;;;25.00;39.30;;;;;;5089633;28;1051;-45
2022/04/19 11:35:16;;;;;;;;;;;25.00;39.20;;;;;;5089059;28;1879;-45
2022/04/19 11:37:44;;;;;;;;;;;25.10;39.40;;;;;;5089134;28;981;-44
2022/04/19 11:48:35;;;;;;;;;;;25.00;39.30;;;;;;5088714;28;651;-44
2022/04/19 11:51:08;;;;;;;;;;;25.00;39.40;;;;;;5087716;28;1251;-45
2022/04/19 11:53:37;;;;;;;;;;;25.00;39.30;;;;;;5088483;28;1958;-44
2022/04/19 11:56:04;;;;;;;;;;;25.10;39.60;;;;;;5087590;28;1015;-45
2022/04/19 11:58:31;;;;;;;;;;;25.10;39.40;;;;;;5088457;28;1906;-43
2022/04/19 12:00:58;;;;;;;;;;;25.00;39.30;;;;;;5087676;28;1081;-46
2022/04/19 12:03:27;;;;;;;;;;;25.10;39.40;;;;;;5088291;28;900;-45
2022/04/19 12:05:55;;;;;;;;;;;25.10;39.50;;;;;;5089724;28;1052;-45
2022/04/19 12:08:34;;;;;;;;;;;25.00;39.30;;;;;;5088620;28;947;-45
2022/04/19 12:11:03;;;;;;;;;;;25.10;39.60;;;;;;5088264;28;1099;-47
2022/04/19 12:13:30;;;;;;;;;;;25.00;39.40;;;;;;5087346;28;1958;-44
2022/04/19 12:15:57;;;;;;;;;;;25.10;39.50;;;;;;5087467;28;1597;-43
2022/04/19 12:18:31;;;;;;;;;;;25.10;39.30;;;;;;5088166;28;969;-45
2022/04/19 12:20:58;;;;;;;;;;;25.10;39.40;;;;;;5086539;28;1011;-44
2022/04/19 12:23:25;;;;;;;;;;;25.10;39.30;;;;;;5087207;28;960;-44
2022/04/19 12:26:01;;;;;;;;;;;25.10;39.40;;;;;;5088075;28;1048;-46
2022/04/19 12:28:41;;;;;;;;;;;25.10;39.50;;;;;;5087601;28;929;-44
2022/04/19 12:31:07;;;;;;;;;;;25.10;39.50;;;;;;5089136;28;904;-46
2022/04/19 12:33:35;;;;;;;;;;;25.10;39.30;;;;;;5088332;28;1949;-46
2022/04/19 12:36:02;;;;;;;;;;;25.10;39.40;;;;;;5087232;28;1058;-44
2022/04/19 12:38:29;;;;;;;;;;;25.10;39.50;;;;;;5087671;28;1922;-45
2022/04/19 12:40:56;;;;;;;;;;;25.10;39.50;;;;;;5087223;28;1115;-46
2022/04/19 12:43:38;;;;;;;;;;;25.10;39.30;;;;;;5083136;28;1464;-45
2022/04/19 12:46:06;;;;;;;;;;;25.10;39.40;;;;;;5077916;28;1693;-48
2022/04/19 12:48:33;;;;;;;;;;;25.10;39.50;;;;;;5085893;28;1104;-44
2022/04/19 12:51:01;;;;;;;;;;;25.10;39.40;;;;;;5087510;28;1550;-45
2022/04/19 12:53:28;;;;;;;;;;;25.10;39.50;;;;;;5087512;28;1874;-45
2022/04/19 12:55:54;;;;;;;;;;;25.10;39.30;;;;;;5087927;28;992;-44
2022/04/19 12:58:21;;;;;;;;;;;25.20;39.50;;;;;;5086815;28;961;-45
2022/04/19 13:00:48;;;;;;;;;;;25.20;39.20;;;;;;5077196;28;897;-39
2022/04/19 13:03:17;;;;;;;;;;;25.20;39.20;;;;;;5068047;28;1381;-45
2022/04/19 13:13:58;;;;;;;;;;;25.50;39.10;;;;;;5057095;28;1979;-41
2022/04/19 13:16:25;;;;;;;;;;;25.50;39.40;;;;;;5048585;28;1033;-43
2022/04/19 13:18:53;;;;;;;;;;;25.50;39.20;;;;;;5052123;28;1078;-42
2022/04/19 13:21:20;;;;;;;;;;;25.60;39.30;;;;;;5066372;28;995;-43
2022/04/19 13:23:46;;;;;;;;;;;25.60;39.10;;;;;;5066576;28;984;-39
2022/04/19 13:26:13;;;;;;;;;;;25.50;39.10;;;;;;5066032;28;1853;-39
2022/04/19 13:28:40;;;;;;;;;;;25.40;39.30;;;;;;5065617;28;756;-39
2022/04/19 13:31:07;;;;;;;;;;;25.50;39.50;;;;;;5066212;28;964;-36
2022/04/19 13:33:33;;;;;;;;;;;25.40;39.40;;;;;;5066343;28;1981;-38
2022/04/19 13:36:02;;;;;;;;;;;25.40;39.50;;;;;;5065735;28;1011;-37
2022/04/19 13:38:34;;;;;;;;;;;25.40;39.60;;;;;;5064106;28;968;-37
2022/04/19 13:41:01;;;;;;;;;;;25.40;39.60;;;;;;5066389;28;1026;-38
2022/04/19 13:43:28;;;;;;;;;;;25.40;40.60;;;;;;5066066;28;932;-37
2022/04/19 13:45:55;;;;;;;;;;;25.50;39.50;;;;;;5063959;28;1011;-38
2022/04/19 13:48:21;;;;;;;;;;;25.50;39.50;;;;;;5063966;28;1868;-37
2022/04/19 13:50:49;;;;;;;;;;;25.50;39.50;;;;;;5065045;28;963;-37
2022/04/19 13:53:17;;;;;;;;;;;25.50;39.40;;;;;;5068124;28;929;-37
2022/04/19 13:55:43;;;;;;;;;;;25.50;39.40;;;;;;5069085;28;1988;-37
2022/04/19 13:58:10;;;;;;;;;;;25.50;39.40;;;;;;5069693;28;1020;-37
2022/04/19 14:00:37;;;;;;;;;;;25.50;39.40;;;;;;5069382;28;929;-37
2022/04/19 14:03:04;;;;;;;;;;;25.60;39.50;;;;;;5070934;28;846;-37
2022/04/19 14:05:31;;;;;;;;;;;25.60;39.50;;;;;;5068857;28;996;-38
2022/04/19 14:07:58;;;;;;;;;;;25.60;39.50;;;;;;5068824;28;857;-37
2022/04/19 14:10:26;;;;;;;;;;;25.60;39.40;;;;;;5070374;28;884;-38
2022/04/19 14:12:53;;;;;;;;;;;25.60;39.50;;;;;;5068964;28;1019;-37
2022/04/19 14:15:20;;;;;;;;;;;25.60;39.40;;;;;;5068248;28;1983;-37
2022/04/19 14:17:46;;;;;;;;;;;25.70;39.40;;;;;;5071270;28;944;-37
2022/04/19 14:20:13;;;;;;;;;;;25.70;39.50;;;;;;5070778;28;1028;-37
2022/04/19 14:22:40;;;;;;;;;;;25.70;39.40;;;;;;5070844;28;972;-38
2022/04/19 14:25:07;;;;;;;;;;;25.70;39.40;;;;;;5070927;28;1112;-37
2022/04/19 14:27:35;;;;;;;;;;;25.80;39.40;;;;;;5071224;28;937;-36
2022/04/19 14:35:30;;;;;;;;;;;25.80;38.50;;;;;;5070094;28;1913;-38
2022/04/19 14:37:57;;;;;;;;;;;25.80;38.20;;;;;;5070661;28;917;-36
2022/04/19 14:40:24;;;;;;;;;;;25.80;36.70;;;;;;5069373;28;1286;-37
2022/04/19 14:42:52;;;;;;;;;;;25.80;36.70;;;;;;5071097;28;833;-36
2022/04/19 14:45:19;;;;;;;;;;;25.80;36.10;;;;;;5070025;28;980;-38
2022/04/19 14:47:46;;;;;;;;;;;25.70;35.70;;;;;;5069655;28;993;-36
2022/04/19 14:50:13;;;;;;;;;;;25.60;35.80;;;;;;5068542;28;984;-36
2022/04/19 14:52:39;;;;;;;;;;;25.60;35.00;;;;;;5070296;28;913;-36
2022/04/19 14:55:06;;;;;;;;;;;25.60;35.20;;;;;;5070310;28;1946;-36
2022/04/19 14:57:33;;;;;;;;;;;25.60;35.40;;;;;;5067629;28;1812;-36
2022/04/19 15:00:02;;;;;;;;;;;25.60;33.80;;;;;;5067560;28;981;-36
2022/04/19 15:02:28;;;;;;;;;;;25.60;33.80;;;;;;5067474;28;1016;-36
2022/04/19 15:04:55;;;;;;;;;;;25.60;34.20;;;;;;5070237;28;964;-36
2022/04/19 15:07:24;;;;;;;;;;;25.60;33.90;;;;;;5070394;28;850;-36
2022/04/19 15:09:51;;;;;;;;;;;25.60;32.80;;;;;;5070766;28;877;-36
2022/04/19 15:12:18;;;;;;;;;;;25.60;33.40;;;;;;5069589;28;928;-36
2022/04/19 15:14:44;;;;;;;;;;;25.60;33.40;;;;;;5069947;28;1914;-36
2022/04/19 15:17:13;;;;;;;;;;;25.60;33.10;;;;;;5070527;28;881;-36
2022/04/19 15:19:41;;;;;;;;;;;25.60;33.00;;;;;;5071665;28;917;-37
2022/04/19 15:22:08;;;;;;;;;;;25.60;32.90;;;;;;5070987;28;916;-37
2022/04/19 15:24:35;;;;;;;;;;;25.60;33.30;;;;;;5070163;28;1019;-36
2022/04/19 15:27:01;;;;;;;;;;;25.60;32.90;;;;;;5071276;28;1003;-37
2022/04/19 15:29:29;;;;;;;;;;;25.60;32.80;;;;;;5072011;28;888;-36
2022/04/19 15:31:56;;;;;;;;;;;25.60;32.80;;;;;;5071734;28;837;-37
2022/04/19 15:34:24;;;;;;;;;;;25.60;33.00;;;;;;5071644;28;1917;-36
2022/04/19 15:36:51;;;;;;;;;;;25.60;32.50;;;;;;5070780;28;990;-37